Time;durP1;ratioP1;P1;durP2;ratioP2;P2;SDS_P1;SDS_P2;PMS_P1;PMS_P2;Temp;Humidity;BMP_temperature;BMP_pressure;BME280_temperature;BME280_humidity;BME280_pressure;Samples;Min_cycle;Max_cycle;Signal;HPM_P1;HPM_P2
2023/12/23 00:07:59;;;;;;;;;;;7.80;99.90;;;;;;20888077;28;19909;-77
2023/12/23 00:18:00;;;;;;;;;;;7.70;99.90;;;;;;20895710;28;20400;-77
2023/12/23 00:28:01;;;;;;;;;;;7.70;99.90;;;;;;20893981;28;19909;-77
2023/12/23 00:38:01;;;;;;;;;;;7.70;99.90;;;;;;20895209;28;19919;-77
2023/12/23 00:48:02;;;;;;;;;;;7.60;99.90;;;;;;20885657;28;19913;-77
2023/12/23 00:58:03;;;;;;;;;;;7.70;99.90;;;;;;20886475;28;19913;-77
2023/12/23 01:08:04;;;;;;;;;;;7.60;99.90;;;;;;20851577;28;19953;-77
2023/12/23 01:18:04;;;;;;;;;;;7.60;99.90;;;;;;20886381;28;19958;-77
2023/12/23 01:28:05;;;;;;;;;;;7.60;99.90;;;;;;20885920;28;19909;-77
2023/12/23 01:38:06;;;;;;;;;;;7.50;99.90;;;;;;20873644;28;20003;-77
2023/12/23 01:48:09;;;;;;;;;;;7.50;99.90;;;;;;20890604;28;19913;-77
2023/12/23 01:58:09;;;;;;;;;;;7.50;99.90;;;;;;20882393;28;19935;-77
2023/12/23 02:08:12;;;;;;;;;;;7.50;99.90;;;;;;20893392;28;19921;-77
2023/12/23 02:18:12;;;;;;;;;;;7.50;99.90;;;;;;20893739;28;19921;-76
2023/12/23 02:28:14;;;;;;;;;;;7.50;99.90;;;;;;20903347;28;19936;-77
2023/12/23 02:38:15;;;;;;;;;;;7.50;99.90;;;;;;20895127;28;19942;-76
2023/12/23 02:48:17;;;;;;;;;;;7.40;99.90;;;;;;20899107;28;19912;-77
2023/12/23 02:58:17;;;;;;;;;;;7.50;99.90;;;;;;20873459;28;20296;-77
2023/12/23 03:08:19;;;;;;;;;;;7.50;99.90;;;;;;20894345;28;20288;-77
2023/12/23 03:18:20;;;;;;;;;;;7.50;99.90;;;;;;20872552;28;19925;-77
2023/12/23 03:28:20;;;;;;;;;;;7.50;99.90;;;;;;20888958;28;20003;-77
2023/12/23 03:38:21;;;;;;;;;;;7.50;99.90;;;;;;20874181;28;20019;-77
2023/12/23 03:48:22;;;;;;;;;;;7.50;99.90;;;;;;20881872;28;19912;-77
2023/12/23 03:58:23;;;;;;;;;;;7.50;99.90;;;;;;20907602;28;19919;-76
2023/12/23 04:08:23;;;;;;;;;;;7.50;99.90;;;;;;20883052;28;19909;-77
2023/12/23 04:18:24;;;;;;;;;;;7.50;99.90;;;;;;20906211;28;19912;-76
2023/12/23 04:28:24;;;;;;;;;;;7.40;99.90;;;;;;20878968;28;19912;-77
2023/12/23 04:38:26;;;;;;;;;;;7.50;99.90;;;;;;20881055;28;19912;-77
2023/12/23 04:48:26;;;;;;;;;;;7.50;99.90;;;;;;20881032;28;19951;-77
2023/12/23 04:58:27;;;;;;;;;;;7.60;99.90;;;;;;20903990;28;19912;-77
2023/12/23 05:08:28;;;;;;;;;;;7.60;99.90;;;;;;20879006;28;19908;-76
2023/12/23 05:18:29;;;;;;;;;;;7.60;99.90;;;;;;20902249;28;19916;-77
2023/12/23 05:28:29;;;;;;;;;;;7.60;99.90;;;;;;20886987;28;19955;-76
2023/12/23 05:38:30;;;;;;;;;;;7.60;99.90;;;;;;20912800;28;19924;-76
2023/12/23 05:48:30;;;;;;;;;;;7.70;99.90;;;;;;20918899;28;19931;-77
2023/12/23 05:58:31;;;;;;;;;;;7.70;99.90;;;;;;20930309;28;19916;-77
2023/12/23 06:08:32;;;;;;;;;;;7.70;99.90;;;;;;20915127;28;19913;-77
2023/12/23 06:18:33;;;;;;;;;;;7.70;99.90;;;;;;20915004;28;19916;-77
2023/12/23 06:28:34;;;;;;;;;;;7.70;99.90;;;;;;20916921;28;19909;-77
2023/12/23 06:38:35;;;;;;;;;;;7.70;99.90;;;;;;20909318;28;19935;-77
2023/12/23 06:48:35;;;;;;;;;;;7.70;99.90;;;;;;20914080;28;20385;-77
2023/12/23 06:58:36;;;;;;;;;;;7.70;99.90;;;;;;20912341;28;19967;-77
2023/12/23 07:08:37;;;;;;;;;;;7.70;99.90;;;;;;20909172;28;19920;-77
2023/12/23 07:18:37;;;;;;;;;;;7.70;99.90;;;;;;20911189;28;20373;-76
2023/12/23 07:28:38;;;;;;;;;;;7.60;99.90;;;;;;20905527;28;19940;-76
2023/12/23 07:38:39;;;;;;;;;;;7.60;99.90;;;;;;20906216;28;20008;-77
2023/12/23 07:48:39;;;;;;;;;;;7.70;99.90;;;;;;20901944;28;19955;-77
2023/12/23 07:58:40;;;;;;;;;;;7.60;99.90;;;;;;20909195;28;19948;-77
2023/12/23 08:08:41;;;;;;;;;;;7.70;99.90;;;;;;20907382;28;20296;-77
2023/12/23 08:18:41;;;;;;;;;;;7.70;99.90;;;;;;20905564;28;19923;-77
2023/12/23 08:28:42;;;;;;;;;;;7.70;99.90;;;;;;20898699;28;20007;-75
2023/12/23 08:38:43;;;;;;;;;;;7.80;99.90;;;;;;20891152;28;19923;-76
2023/12/23 08:48:44;;;;;;;;;;;7.70;99.90;;;;;;20868180;28;19931;-77
2023/12/23 08:58:45;;;;;;;;;;;7.70;99.90;;;;;;20887311;28;19913;-77
2023/12/23 09:08:46;;;;;;;;;;;7.70;99.90;;;;;;20860472;28;19924;-76
2023/12/23 09:18:46;;;;;;;;;;;7.70;99.90;;;;;;20888662;28;19917;-77
2023/12/23 09:28:47;;;;;;;;;;;7.70;99.90;;;;;;20905751;28;19909;-77
2023/12/23 09:38:48;;;;;;;;;;;7.80;99.90;;;;;;20900643;28;19912;-77
2023/12/23 09:48:48;;;;;;;;;;;7.90;99.90;;;;;;20871880;28;19971;-76
2023/12/23 09:58:49;;;;;;;;;;;7.90;99.90;;;;;;20885023;28;19936;-76
2023/12/23 10:08:50;;;;;;;;;;;7.90;99.90;;;;;;20861492;28;19917;-76
2023/12/23 10:18:50;;;;;;;;;;;8.00;99.90;;;;;;20895664;28;20342;-77
2023/12/23 10:28:53;;;;;;;;;;;8.00;99.90;;;;;;20886881;28;19916;-76
2023/12/23 10:38:58;;;;;;;;;;;8.10;99.90;;;;;;20902239;28;19913;-76
2023/12/23 10:48:58;;;;;;;;;;;8.10;99.90;;;;;;20900566;28;19929;-76
2023/12/23 10:59:00;;;;;;;;;;;8.20;99.90;;;;;;20905984;28;19947;-77
2023/12/23 11:09:01;;;;;;;;;;;8.20;99.90;;;;;;20923494;28;19909;-77
2023/12/23 11:19:04;;;;;;;;;;;8.20;99.90;;;;;;20911226;28;19917;-76
2023/12/23 11:29:06;;;;;;;;;;;8.20;99.90;;;;;;20902593;28;19967;-77
2023/12/23 11:39:06;;;;;;;;;;;8.20;99.90;;;;;;20892048;28;19920;-78
2023/12/23 11:49:08;;;;;;;;;;;8.20;99.90;;;;;;20913823;28;19908;-77
2023/12/23 11:59:09;;;;;;;;;;;8.20;99.90;;;;;;20880039;28;20432;-77
2023/12/23 12:09:10;;;;;;;;;;;8.20;99.90;;;;;;20901477;28;20013;-77
2023/12/23 12:19:12;;;;;;;;;;;8.20;99.90;;;;;;20901715;28;19920;-76
2023/12/23 12:29:13;;;;;;;;;;;8.20;99.90;;;;;;20879184;28;19913;-77
2023/12/23 12:39:14;;;;;;;;;;;8.30;99.90;;;;;;20879350;28;19925;-77
2023/12/23 12:49:15;;;;;;;;;;;8.40;99.90;;;;;;20902801;28;20019;-76
2023/12/23 12:59:17;;;;;;;;;;;8.30;99.90;;;;;;20896713;28;19924;-76
2023/12/23 13:09:18;;;;;;;;;;;8.30;99.90;;;;;;20903139;28;19912;-76
2023/12/23 13:19:18;;;;;;;;;;;8.50;99.90;;;;;;20888079;28;20015;-75
2023/12/23 13:29:21;;;;;;;;;;;8.50;99.90;;;;;;20850558;28;20389;-76
2023/12/23 13:39:21;;;;;;;;;;;8.40;99.90;;;;;;20879120;28;19944;-76
2023/12/23 13:49:22;;;;;;;;;;;8.50;99.90;;;;;;20892493;28;20293;-76
2023/12/23 13:59:23;;;;;;;;;;;8.60;99.90;;;;;;20892349;28;19950;-77
2023/12/23 14:09:23;;;;;;;;;;;8.60;99.90;;;;;;20910690;28;19935;-73
2023/12/23 14:19:24;;;;;;;;;;;8.60;99.90;;;;;;20903654;28;19920;-77
2023/12/23 14:29:25;;;;;;;;;;;8.40;99.90;;;;;;20906181;28;19913;-77
2023/12/23 14:39:26;;;;;;;;;;;8.30;99.90;;;;;;20886657;28;19948;-77
2023/12/23 14:49:26;;;;;;;;;;;8.30;99.90;;;;;;20886575;28;19948;-76
2023/12/23 14:59:29;;;;;;;;;;;8.20;99.90;;;;;;20882504;28;20410;-76
2023/12/23 15:09:30;;;;;;;;;;;8.20;99.90;;;;;;20867328;28;19916;-76
2023/12/23 15:19:31;;;;;;;;;;;8.20;99.90;;;;;;20858459;28;20313;-76
2023/12/23 15:29:31;;;;;;;;;;;8.30;99.90;;;;;;20882812;28;19912;-73
2023/12/23 15:39:32;;;;;;;;;;;8.20;99.90;;;;;;20901374;28;19959;-76
2023/12/23 15:49:33;;;;;;;;;;;8.00;99.90;;;;;;20902364;28;19959;-77
2023/12/23 15:59:34;;;;;;;;;;;7.90;99.90;;;;;;20882455;28;19942;-77
2023/12/23 16:09:34;;;;;;;;;;;7.80;99.90;;;;;;20891900;28;19909;-76
2023/12/23 16:19:35;;;;;;;;;;;7.70;99.90;;;;;;20892961;28;19916;-76
2023/12/23 16:29:39;;;;;;;;;;;7.60;99.90;;;;;;20905733;28;20396;-75
2023/12/23 16:39:40;;;;;;;;;;;7.60;99.90;;;;;;20882555;28;19978;-78
2023/12/23 16:49:42;;;;;;;;;;;7.70;99.90;;;;;;20890272;28;19909;-77
2023/12/23 16:59:42;;;;;;;;;;;7.70;99.90;;;;;;20871149;28;19912;-77
2023/12/23 17:09:43;;;;;;;;;;;7.70;99.90;;;;;;20887596;28;19973;-77
2023/12/23 17:19:44;;;;;;;;;;;7.70;99.90;;;;;;20887711;28;20390;-77
2023/12/23 17:29:44;;;;;;;;;;;7.70;99.90;;;;;;20894091;28;19947;-77
2023/12/23 17:39:45;;;;;;;;;;;7.60;99.90;;;;;;20875564;28;19917;-77
2023/12/23 17:49:45;;;;;;;;;;;7.80;99.90;;;;;;20893961;28;19936;-77
2023/12/23 17:59:49;;;;;;;;;;;7.80;99.90;;;;;;20894842;28;20037;-77
2023/12/23 18:09:50;;;;;;;;;;;7.90;99.90;;;;;;20895516;28;19924;-77
2023/12/23 18:19:51;;;;;;;;;;;7.80;99.90;;;;;;20902843;28;20320;-77
2023/12/23 18:29:52;;;;;;;;;;;7.70;99.90;;;;;;20907197;28;19934;-77
2023/12/23 18:39:52;;;;;;;;;;;7.70;99.90;;;;;;20899539;28;19919;-77
2023/12/23 18:49:53;;;;;;;;;;;7.70;99.90;;;;;;20895218;28;19931;-77
2023/12/23 18:59:55;;;;;;;;;;;7.60;99.90;;;;;;20875269;28;19936;-77
2023/12/23 19:09:56;;;;;;;;;;;7.50;99.90;;;;;;20904489;28;19924;-77
2023/12/23 19:19:57;;;;;;;;;;;7.60;99.90;;;;;;20883675;28;19917;-77
2023/12/23 19:29:57;;;;;;;;;;;7.60;99.90;;;;;;20891337;28;20377;-77
2023/12/23 19:39:58;;;;;;;;;;;7.60;99.90;;;;;;20894350;28;19912;-77
2023/12/23 19:49:58;;;;;;;;;;;7.60;99.90;;;;;;20905156;28;20432;-78
2023/12/23 19:59:59;;;;;;;;;;;7.60;99.90;;;;;;20904470;28;19934;-77
2023/12/23 20:10:00;;;;;;;;;;;7.70;99.90;;;;;;20906395;28;19909;-78
2023/12/23 20:20:00;;;;;;;;;;;7.70;99.90;;;;;;20903463;28;20401;-78
2023/12/23 20:30:01;;;;;;;;;;;7.70;99.90;;;;;;20898898;28;19912;-77
2023/12/23 20:40:02;;;;;;;;;;;7.50;99.90;;;;;;20906987;28;19924;-78
2023/12/23 20:50:03;;;;;;;;;;;7.50;99.90;;;;;;20902538;28;19919;-77
2023/12/23 21:00:06;;;;;;;;;;;7.50;99.90;;;;;;20893412;28;20432;-77
2023/12/23 21:10:07;;;;;;;;;;;7.60;99.90;;;;;;20900976;28;20431;-78
2023/12/23 21:20:08;;;;;;;;;;;7.70;99.90;;;;;;20898980;28;19916;-77
2023/12/23 21:30:09;;;;;;;;;;;7.70;99.90;;;;;;20900753;28;19954;-77
2023/12/23 21:40:10;;;;;;;;;;;7.70;99.90;;;;;;20900648;28;20002;-78
2023/12/23 21:50:10;;;;;;;;;;;7.60;99.90;;;;;;20862624;28;19966;-77
2023/12/23 22:00:11;;;;;;;;;;;7.60;99.90;;;;;;20889809;28;19919;-78
2023/12/23 22:10:12;;;;;;;;;;;7.60;99.90;;;;;;20914852;28;19939;-75
2023/12/23 22:20:13;;;;;;;;;;;7.60;99.90;;;;;;20895483;28;20412;-75
2023/12/23 22:30:14;;;;;;;;;;;7.60;99.90;;;;;;20898919;28;19913;-76
2023/12/23 22:40:14;;;;;;;;;;;7.70;99.90;;;;;;20900231;28;19916;-76
2023/12/23 22:50:15;;;;;;;;;;;7.70;99.90;;;;;;20881861;28;21164;-78
2023/12/23 23:00:18;;;;;;;;;;;7.70;99.90;;;;;;20884893;28;20285;-78
2023/12/23 23:10:19;;;;;;;;;;;7.80;99.90;;;;;;20866631;28;20350;-77
2023/12/23 23:20:20;;;;;;;;;;;7.80;99.90;;;;;;20906895;28;19959;-78
2023/12/23 23:30:20;;;;;;;;;;;7.90;99.90;;;;;;20916242;28;20393;-78
2023/12/23 23:40:21;;;;;;;;;;;7.90;99.90;;;;;;20910407;28;19935;-77
2023/12/23 23:50:21;;;;;;;;;;;7.80;99.90;;;;;;20916348;28;19908;-77
